Time;durP1;ratioP1;P1;durP2;ratioP2;P2;SDS_P1;SDS_P2;PMS_P1;PMS_P2;Temp;Humidity;BMP_temperature;BMP_pressure;BME280_temperature;BME280_humidity;BME280_pressure;Samples;Min_cycle;Max_cycle;Signal;HPM_P1;HPM_P2
2023/04/28 00:00:29;;;;;;;13.95;10.93;;;;;;;;;;5043823;28;20753;-74
2023/04/28 00:02:55;;;;;;;17.80;10.75;;;;;;;;;;5027483;28;20065;-74
2023/04/28 00:05:24;;;;;;;14.85;10.38;;;;;;;;;;5043296;28;20039;-74
2023/04/28 00:07:50;;;;;;;;;;;;;;;;;;5045651;28;20609;-74
2023/04/28 00:10:16;;;;;;;12.05;9.50;;;;;;;;;;5043679;28;19932;-73
2023/04/28 00:12:42;;;;;;;13.55;9.43;;;;;;;;;;5045564;28;20740;-74
2023/04/28 00:15:08;;;;;;;12.95;9.85;;;;;;;;;;5045438;28;20041;-75
2023/04/28 00:17:34;;;;;;;14.95;10.25;;;;;;;;;;5044124;28;20044;-76
2023/04/28 00:20:00;;;;;;;14.18;9.48;;;;;;;;;;5043363;28;20413;-75
2023/04/28 00:22:26;;;;;;;14.52;9.50;;;;;;;;;;5043672;28;20125;-76
2023/04/28 00:24:52;;;;;;;13.55;9.57;;;;;;;;;;5027879;28;20052;-76
2023/04/28 00:27:19;;;;;;;11.70;9.10;;;;;;;;;;5044509;28;20068;-76
2023/04/28 00:29:46;;;;;;;14.10;9.40;;;;;;;;;;5046050;28;20052;-76
2023/04/28 00:32:12;;;;;;;17.17;9.95;;;;;;;;;;5043766;28;20404;-75
2023/04/28 00:34:38;;;;;;;11.85;9.43;;;;;;;;;;5044382;28;20033;-75
2023/04/28 00:37:04;;;;;;;12.20;9.68;;;;;;;;;;5044632;28;20045;-76
2023/04/28 00:39:30;;;;;;;12.95;9.80;;;;;;;;;;5043618;28;20047;-74
2023/04/28 00:41:56;;;;;;;13.18;9.57;;;;;;;;;;5045444;28;20083;-75
2023/04/28 00:44:22;;;;;;;12.18;9.43;;;;;;;;;;5043627;28;20072;-76
2023/04/28 00:46:48;;;;;;;12.48;9.43;;;;;;;;;;5044838;28;20080;-75
2023/04/28 00:49:15;;;;;;;11.15;9.63;;;;;;;;;;5043695;28;20041;-75
2023/04/28 00:51:41;;;;;;;13.38;9.25;;;;;;;;;;5043983;28;20041;-75
2023/04/28 00:54:07;;;;;;;12.43;9.30;;;;;;;;;;5044698;28;20052;-75
2023/04/28 00:56:33;;;;;;;12.65;9.70;;;;;;;;;;5044016;28;20439;-74
2023/04/28 00:58:59;;;;;;;12.48;9.75;;;;;;;;;;5044533;28;20037;-75
2023/04/28 01:01:25;;;;;;;11.70;9.23;;;;;;;;;;5025187;28;20056;-74
2023/04/28 01:03:52;;;;;;;12.95;8.80;;;;;;;;;;5026697;28;20072;-74
2023/04/28 01:06:18;;;;;;;13.00;9.55;;;;;;;;;;5025190;28;20053;-73
2023/04/28 01:08:47;;;;;;;12.45;9.00;;;;;;;;;;5023352;28;20073;-75
2023/04/28 01:11:13;;;;;;;11.13;9.23;;;;;;;;;;5027174;28;20099;-75
2023/04/28 01:13:39;;;;;;;12.10;8.98;;;;;;;;;;5030359;28;20443;-75
2023/04/28 01:16:06;;;;;;;12.02;9.27;;;;;;;;;;5030985;28;20053;-75
2023/04/28 01:18:33;;;;;;;12.45;9.13;;;;;;;;;;5029643;28;20045;-75
2023/04/28 01:20:59;;;;;;;13.57;10.38;;;;;;;;;;5029730;28;20090;-75
2023/04/28 01:23:26;;;;;;;13.43;10.00;;;;;;;;;;5029866;28;21281;-74
2023/04/28 01:25:52;;;;;;;13.98;10.48;;;;;;;;;;5030588;28;20099;-75
2023/04/28 01:28:18;;;;;;;17.05;11.07;;;;;;;;;;5028573;28;20126;-74
2023/04/28 01:30:44;;;;;;;19.02;10.90;;;;;;;;;;5030290;28;20049;-74
2023/04/28 01:33:10;;;;;;;14.25;11.38;;;;;;;;;;5048329;28;20033;-74
2023/04/28 01:35:36;;;;;;;14.85;10.73;;;;;;;;;;5046863;28;20144;-75
2023/04/28 01:38:02;;;;;;;17.38;12.13;;;;;;;;;;5029585;28;20041;-75
2023/04/28 01:40:28;;;;;;;16.88;11.70;;;;;;;;;;5029112;28;20071;-75
2023/04/28 01:42:54;;;;;;;17.65;12.02;;;;;;;;;;5046852;28;20504;-74
2023/04/28 01:45:20;;;;;;;19.63;13.23;;;;;;;;;;5028977;28;20123;-75
2023/04/28 01:47:46;;;;;;;17.00;13.00;;;;;;;;;;5030803;28;20509;-75
2023/04/28 01:50:12;;;;;;;20.10;13.50;;;;;;;;;;5028736;28;20049;-75
2023/04/28 01:52:38;;;;;;;16.95;12.93;;;;;;;;;;5029426;28;20049;-75
2023/04/28 01:55:04;;;;;;;19.25;13.15;;;;;;;;;;5030365;28;20144;-75
2023/04/28 01:57:30;;;;;;;15.10;12.93;;;;;;;;;;5029425;28;20033;-74
2023/04/28 01:59:57;;;;;;;16.88;13.38;;;;;;;;;;5030422;28;20048;-74
2023/04/28 02:02:23;;;;;;;18.08;14.05;;;;;;;;;;5029259;28;20487;-76
2023/04/28 02:04:50;;;;;;;18.70;13.68;;;;;;;;;;5029409;28;20095;-75
2023/04/28 02:07:16;;;;;;;17.02;13.82;;;;;;;;;;5028647;28;20056;-75
2023/04/28 02:09:42;;;;;;;17.60;13.68;;;;;;;;;;5029505;28;20497;-75
2023/04/28 02:12:08;;;;;;;19.00;13.25;;;;;;;;;;5028964;28;20048;-75
2023/04/28 02:14:33;;;;;;;20.52;14.23;;;;;;;;;;5021147;28;20041;-75
2023/04/28 02:17:01;;;;;;;17.77;14.57;;;;;;;;;;5029542;28;20075;-75
2023/04/28 02:19:27;;;;;;;19.70;14.40;;;;;;;;;;5028452;28;20073;-76
2023/04/28 02:21:53;;;;;;;17.17;14.30;;;;;;;;;;5028293;28;20094;-76
2023/04/28 02:24:19;;;;;;;18.88;14.52;;;;;;;;;;5028201;28;20063;-75
2023/04/28 02:26:45;;;;;;;24.25;15.45;;;;;;;;;;5029160;28;20505;-76
2023/04/28 02:29:11;;;;;;;19.35;14.90;;;;;;;;;;5028683;28;20056;-75
2023/04/28 02:31:37;;;;;;;19.23;14.75;;;;;;;;;;5029706;28;20123;-76
2023/04/28 02:34:03;;;;;;;22.42;15.30;;;;;;;;;;5028854;28;20493;-76
2023/04/28 02:36:31;;;;;;;18.42;14.57;;;;;;;;;;5028282;28;20040;-75
2023/04/28 02:38:57;;;;;;;25.42;16.17;;;;;;;;;;5029478;28;20732;-74
2023/04/28 02:41:23;;;;;;;21.67;15.30;;;;;;;;;;5028393;28;20045;-75
2023/04/28 02:43:49;;;;;;;25.38;16.85;;;;;;;;;;5029551;28;20041;-75
2023/04/28 02:46:15;;;;;;;21.38;16.70;;;;;;;;;;5028024;28;20094;-74
2023/04/28 02:48:41;;;;;;;23.58;16.17;;;;;;;;;;5029024;28;20045;-75
2023/04/28 02:51:07;;;;;;;23.30;17.50;;;;;;;;;;5027384;28;20049;-76
2023/04/28 02:53:33;;;;;;;19.65;15.88;;;;;;;;;;5028504;28;20358;-75
2023/04/28 02:56:00;;;;;;;23.65;16.92;;;;;;;;;;5029100;28;20110;-75
2023/04/28 02:58:26;;;;;;;23.58;17.88;;;;;;;;;;5033073;28;20048;-76
2023/04/28 03:00:52;;;;;;;22.55;17.60;;;;;;;;;;5028001;28;20516;-76
2023/04/28 03:03:18;;;;;;;25.65;18.23;;;;;;;;;;5028268;28;20069;-75
2023/04/28 03:05:44;;;;;;;28.50;19.55;;;;;;;;;;5027926;28;20500;-75
2023/04/28 03:08:10;;;;;;;25.27;18.48;;;;;;;;;;5028427;28;20056;-75
2023/04/28 03:10:36;;;;;;;26.50;19.42;;;;;;;;;;5028010;28;20053;-75
2023/04/28 03:13:02;;;;;;;26.08;18.90;;;;;;;;;;5028640;28;20037;-75
2023/04/28 03:15:28;;;;;;;27.75;20.10;;;;;;;;;;5028075;28;20127;-75
2023/04/28 03:17:55;;;;;;;25.05;19.35;;;;;;;;;;5026068;28;20484;-76
2023/04/28 03:20:21;;;;;;;24.38;19.25;;;;;;;;;;5044759;28;20053;-76
2023/04/28 03:22:47;;;;;;;28.50;18.05;;;;;;;;;;5047299;28;20041;-74
2023/04/28 03:25:12;;;;;;;28.38;19.85;;;;;;;;;;5045261;28;20489;-74
2023/04/28 03:27:39;;;;;;;27.17;20.83;;;;;;;;;;5045702;28;20045;-75
2023/04/28 03:30:05;;;;;;;27.88;20.05;;;;;;;;;;5028230;28;20448;-74
2023/04/28 03:32:31;;;;;;;23.85;18.92;;;;;;;;;;5026560;28;20057;-74
2023/04/28 03:34:57;;;;;;;29.50;20.38;;;;;;;;;;5027817;28;20408;-75
2023/04/28 03:37:23;;;;;;;28.70;19.67;;;;;;;;;;5026765;28;20056;-75
2023/04/28 03:39:49;;;;;;;27.75;20.35;;;;;;;;;;5028014;28;20051;-75
2023/04/28 03:42:15;;;;;;;28.10;20.30;;;;;;;;;;5027968;28;20053;-75
2023/04/28 03:44:41;;;;;;;28.08;21.10;;;;;;;;;;5028562;28;20049;-74
2023/04/28 03:47:07;;;;;;;26.77;19.42;;;;;;;;;;5027704;28;20691;-75
2023/04/28 03:49:33;;;;;;;28.98;20.42;;;;;;;;;;5026990;28;20041;-74
2023/04/28 03:51:59;;;;;;;28.27;20.70;;;;;;;;;;5027794;28;20071;-75
2023/04/28 03:54:25;;;;;;;27.88;20.63;;;;;;;;;;5026439;28;20040;-75
2023/04/28 03:56:51;;;;;;;27.58;20.85;;;;;;;;;;5011434;28;20045;-75
2023/04/28 03:59:17;;;;;;;30.27;20.48;;;;;;;;;;5026675;28;20056;-74
2023/04/28 04:01:43;;;;;;;27.63;20.98;;;;;;;;;;5028353;28;20130;-75
2023/04/28 04:04:09;;;;;;;29.95;20.60;;;;;;;;;;5026297;28;20128;-75
2023/04/28 04:06:35;;;;;;;25.63;19.83;;;;;;;;;;5026787;28;20477;-75
2023/04/28 04:09:01;;;;;;;25.40;20.52;;;;;;;;;;5045570;28;20053;-75
2023/04/28 04:11:27;;;;;;;26.63;20.83;;;;;;;;;;5032138;28;20063;-76
2023/04/28 04:13:53;;;;;;;29.08;21.85;;;;;;;;;;5046093;28;20045;-75
2023/04/28 04:16:20;;;;;;;26.67;20.35;;;;;;;;;;5009996;28;20476;-75
2023/04/28 04:18:46;;;;;;;25.42;19.55;;;;;;;;;;5027115;28;20040;-76
2023/04/28 04:21:12;;;;;;;33.63;21.23;;;;;;;;;;5024872;28;20045;-76
2023/04/28 04:23:38;;;;;;;27.17;20.58;;;;;;;;;;5026877;28;20501;-75
2023/04/28 04:26:04;;;;;;;29.38;20.88;;;;;;;;;;5026771;28;20114;-75
2023/04/28 04:28:30;;;;;;;28.92;20.67;;;;;;;;;;5026780;28;20617;-75
2023/04/28 04:30:56;;;;;;;28.80;20.73;;;;;;;;;;5026944;28;20115;-76
2023/04/28 04:33:22;;;;;;;27.63;20.58;;;;;;;;;;5025743;28;20041;-75
2023/04/28 04:35:48;;;;;;;29.90;21.67;;;;;;;;;;5026333;28;20044;-75
2023/04/28 04:38:14;;;;;;;27.95;21.23;;;;;;;;;;5025732;28;20045;-74
2023/04/28 04:40:40;;;;;;;29.75;21.80;;;;;;;;;;5045815;28;20045;-76
2023/04/28 04:43:06;;;;;;;27.42;20.08;;;;;;;;;;5026653;28;20069;-75
2023/04/28 04:45:32;;;;;;;28.90;20.40;;;;;;;;;;5026800;28;20053;-74
2023/04/28 04:47:58;;;;;;;28.15;21.13;;;;;;;;;;5044458;28;20511;-75
2023/04/28 04:50:25;;;;;;;28.45;21.02;;;;;;;;;;5024915;28;20052;-77
2023/04/28 04:52:51;;;;;;;27.67;20.48;;;;;;;;;;5026644;28;20516;-75
2023/04/28 04:55:17;;;;;;;27.13;20.25;;;;;;;;;;5044317;28;20466;-75
2023/04/28 04:57:43;;;;;;;26.08;20.58;;;;;;;;;;5043887;28;20053;-76
2023/04/28 05:00:09;;;;;;;31.75;20.83;;;;;;;;;;5025101;28;20052;-75
2023/04/28 05:02:35;;;;;;;25.45;20.02;;;;;;;;;;5044856;28;20049;-76
2023/04/28 05:05:01;;;;;;;26.73;20.42;;;;;;;;;;5026138;28;20044;-76
2023/04/28 05:07:27;;;;;;;32.38;21.02;;;;;;;;;;5025947;28;20786;-75
2023/04/28 05:09:53;;;;;;;25.42;19.80;;;;;;;;;;5044186;28;20115;-77
2023/04/28 05:12:19;;;;;;;27.33;20.35;;;;;;;;;;5044564;28;20505;-76
2023/04/28 05:14:45;;;;;;;25.08;19.60;;;;;;;;;;5027330;28;20078;-75
2023/04/28 05:17:11;;;;;;;26.60;19.17;;;;;;;;;;5026018;28;20045;-76
2023/04/28 05:19:37;;;;;;;26.52;19.67;;;;;;;;;;5000159;28;20064;-76
2023/04/28 05:22:03;;;;;;;25.52;19.40;;;;;;;;;;5025623;28;20520;-76
2023/04/28 05:24:29;;;;;;;25.90;19.30;;;;;;;;;;5044967;28;20049;-76
2023/04/28 05:26:57;;;;;;;25.10;19.33;;;;;;;;;;5026712;28;20057;-77
2023/04/28 05:29:23;;;;;;;25.58;19.90;;;;;;;;;;5025654;28;20377;-76
2023/04/28 05:31:49;;;;;;;26.48;18.92;;;;;;;;;;5025894;28;20044;-76
2023/04/28 05:34:15;;;;;;;28.23;19.33;;;;;;;;;;5025350;28;20102;-77
2023/04/28 05:36:41;;;;;;;27.13;19.00;;;;;;;;;;5025912;28;20045;-76
2023/04/28 05:39:07;;;;;;;27.60;19.33;;;;;;;;;;5025265;28;20140;-76
2023/04/28 05:41:35;;;;;;;27.25;19.80;;;;;;;;;;5026158;28;20092;-76
2023/04/28 05:44:01;;;;;;;26.05;19.90;;;;;;;;;;5026961;28;20052;-76
2023/04/28 05:46:27;;;;;;;26.20;19.42;;;;;;;;;;5025778;28;20087;-76
2023/04/28 05:48:53;;;;;;;25.73;19.27;;;;;;;;;;5010008;28;20457;-77
2023/04/28 05:51:21;;;;;;;25.20;18.73;;;;;;;;;;5024221;28;20813;-74
2023/04/28 05:53:47;;;;;;;26.33;18.50;;;;;;;;;;5026729;28;20105;-77
2023/04/28 05:56:14;;;;;;;28.13;20.17;;;;;;;;;;5045731;28;20045;-76
2023/04/28 05:58:40;;;;;;;28.55;19.10;;;;;;;;;;5030359;28;20156;-75
2023/04/28 06:01:06;;;;;;;22.90;18.88;;;;;;;;;;5047521;28;20082;-74
2023/04/28 06:03:32;;;;;;;24.65;18.15;;;;;;;;;;5013245;28;20511;-77
2023/04/28 06:05:58;;;;;;;23.35;18.40;;;;;;;;;;5028699;28;20040;-76
2023/04/28 06:08:24;;;;;;;28.48;18.63;;;;;;;;;;5028879;28;20183;-76
2023/04/28 06:10:50;;;;;;;26.25;18.55;;;;;;;;;;5030927;28;20055;-77
2023/04/28 06:13:16;;;;;;;25.13;18.15;;;;;;;;;;5028872;28;20528;-76
2023/04/28 06:15:42;;;;;;;28.23;19.17;;;;;;;;;;5046322;28;20048;-75
2023/04/28 06:18:08;;;;;;;24.80;18.38;;;;;;;;;;5028555;28;20564;-76
2023/04/28 06:20:35;;;;;;;24.27;18.23;;;;;;;;;;5046969;28;20099;-75
2023/04/28 06:23:02;;;;;;;24.10;17.40;;;;;;;;;;5029675;28;20128;-76
2023/04/28 06:25:28;;;;;;;23.63;17.27;;;;;;;;;;5028642;28;20047;-75
2023/04/28 06:27:54;;;;;;;26.75;18.10;;;;;;;;;;5030300;28;20056;-75
2023/04/28 06:30:22;;;;;;;26.40;17.73;;;;;;;;;;5046428;28;20053;-75
2023/04/28 06:32:48;;;;;;;26.70;18.10;;;;;;;;;;5047884;28;20041;-75
2023/04/28 06:35:15;;;;;;;24.63;17.08;;;;;;;;;;5027796;28;20144;-75
2023/04/28 06:37:41;;;;;;;22.08;16.90;;;;;;;;;;5047721;28;20041;-75
2023/04/28 06:40:07;;;;;;;24.70;18.63;;;;;;;;;;5027414;28;20773;-74
2023/04/28 06:42:33;;;;;;;25.60;17.05;;;;;;;;;;5029494;28;20135;-74
2023/04/28 06:44:59;;;;;;;24.88;18.23;;;;;;;;;;5028742;28;20411;-74
2023/04/28 06:47:25;;;;;;;22.95;17.17;;;;;;;;;;5046093;28;20128;-75
2023/04/28 06:49:51;;;;;;;23.35;17.38;;;;;;;;;;5047175;28;20052;-74
2023/04/28 06:52:17;;;;;;;23.02;16.73;;;;;;;;;;5028443;28;20734;-75
2023/04/28 06:54:43;;;;;;;23.38;16.67;;;;;;;;;;5047137;28;20049;-74
2023/04/28 06:57:09;;;;;;;21.60;15.80;;;;;;;;;;5046184;28;20048;-74
2023/04/28 06:59:36;;;;;;;22.65;15.63;;;;;;;;;;5028602;28;20052;-75
2023/04/28 07:02:02;;;;;;;20.88;16.33;;;;;;;;;;5027952;28;20053;-74
2023/04/28 07:04:28;;;;;;;23.90;16.42;;;;;;;;;;5027460;28;20048;-74
2023/04/28 07:06:54;;;;;;;20.38;16.05;;;;;;;;;;5028185;28;20048;-75
2023/04/28 07:09:20;;;;;;;22.48;15.90;;;;;;;;;;5045196;28;20041;-75
2023/04/28 07:11:46;;;;;;;21.50;16.02;;;;;;;;;;5044404;28;20078;-75
2023/04/28 07:14:12;;;;;;;24.65;16.42;;;;;;;;;;5045536;28;20136;-75
2023/04/28 07:16:38;;;;;;;22.55;16.77;;;;;;;;;;5028450;28;20051;-75
2023/04/28 07:19:04;;;;;;;22.48;16.20;;;;;;;;;;5027204;28;20447;-76
2023/04/28 07:21:30;;;;;;;21.27;15.68;;;;;;;;;;5027536;28;20253;-76
2023/04/28 07:23:56;;;;;;;21.63;15.90;;;;;;;;;;5028288;28;20057;-75
2023/04/28 07:26:25;;;;;;;21.80;16.27;;;;;;;;;;5044614;28;20060;-75
2023/04/28 07:28:51;;;;;;;19.92;15.20;;;;;;;;;;5046199;28;20055;-75
2023/04/28 07:31:17;;;;;;;23.38;15.13;;;;;;;;;;5044466;28;20064;-75
2023/04/28 07:33:43;;;;;;;21.17;15.55;;;;;;;;;;5027997;28;20041;-74
2023/04/28 07:36:09;;;;;;;23.40;15.90;;;;;;;;;;5044133;28;20087;-73
2023/04/28 07:38:35;;;;;;;19.38;15.02;;;;;;;;;;5046004;28;20452;-74
2023/04/28 07:41:05;;;;;;;22.45;15.95;;;;;;;;;;5045476;28;20063;-75
2023/04/28 07:43:31;;;;;;;27.20;15.70;;;;;;;;;;5027613;28;20033;-75
2023/04/28 07:45:57;;;;;;;19.73;14.80;;;;;;;;;;5028036;28;20643;-74
2023/04/28 07:48:24;;;;;;;22.80;15.32;;;;;;;;;;5026486;28;20139;-75
2023/04/28 07:50:50;;;;;;;19.63;14.20;;;;;;;;;;5044052;28;20060;-75
2023/04/28 07:53:16;;;;;;;19.08;14.00;;;;;;;;;;5026553;28;20055;-73
2023/04/28 07:55:43;;;;;;;19.73;14.50;;;;;;;;;;5028048;28;20561;-75
2023/04/28 07:58:09;;;;;;;20.25;14.43;;;;;;;;;;5043926;28;20531;-75
2023/04/28 08:00:35;;;;;;;20.23;13.73;;;;;;;;;;5028081;28;20437;-75
2023/04/28 08:03:01;;;;;;;18.73;14.57;;;;;;;;;;5045693;28;20041;-75
2023/04/28 08:05:27;;;;;;;21.80;14.70;;;;;;;;;;5025451;28;20080;-75
2023/04/28 08:07:53;;;;;;;19.25;13.80;;;;;;;;;;5028063;28;20087;-74
2023/04/28 08:10:20;;;;;;;22.85;13.95;;;;;;;;;;5045319;28;20056;-77
2023/04/28 08:12:46;;;;;;;18.88;14.55;;;;;;;;;;5027926;28;20044;-75
2023/04/28 08:15:12;;;;;;;21.75;14.23;;;;;;;;;;5010022;28;20375;-75
2023/04/28 08:17:38;;;;;;;19.85;14.02;;;;;;;;;;5026367;28;20079;-75
2023/04/28 08:20:05;;;;;;;18.20;13.65;;;;;;;;;;5042646;28;20052;-74
2023/04/28 08:22:31;;;;;;;21.70;13.77;;;;;;;;;;5026233;28;20056;-75
2023/04/28 08:24:57;;;;;;;18.45;13.13;;;;;;;;;;5044445;28;20141;-75
2023/04/28 08:27:24;;;;;;;18.40;13.48;;;;;;;;;;5026149;28;20796;-75
2023/04/28 08:29:50;;;;;;;17.40;13.52;;;;;;;;;;5027960;28;20139;-75
2023/04/28 08:32:16;;;;;;;21.80;13.63;;;;;;;;;;5025990;28;20077;-75
2023/04/28 08:34:42;;;;;;;17.55;13.10;;;;;;;;;;5026981;28;20098;-75
2023/04/28 08:37:08;;;;;;;18.73;13.38;;;;;;;;;;5026289;28;20037;-75
2023/04/28 08:39:34;;;;;;;16.75;12.68;;;;;;;;;;5026720;28;20467;-76
2023/04/28 08:42:04;;;;;;;18.75;13.60;;;;;;;;;;5044675;28;20037;-75
2023/04/28 08:44:38;;;;;;;16.33;13.00;;;;;;;;;;5026074;28;20138;-75
2023/04/28 08:47:10;;;;;;;15.88;12.90;;;;;;;;;;5015882;28;20140;-75
2023/04/28 08:49:36;;;;;;;18.08;13.38;;;;;;;;;;5026099;28;20467;-76
2023/04/28 08:52:02;;;;;;;16.35;12.30;;;;;;;;;;5045359;28;20044;-76
2023/04/28 08:54:31;;;;;;;26.10;13.88;;;;;;;;;;5026852;28;20057;-76
2023/04/28 08:56:57;;;;;;;20.02;14.05;;;;;;;;;;5026975;28;20147;-76
2023/04/28 08:59:23;;;;;;;20.55;12.98;;;;;;;;;;5027397;28;20060;-76
2023/04/28 09:01:50;;;;;;;15.93;12.73;;;;;;;;;;5044260;28;20059;-77
2023/04/28 09:04:16;;;;;;;19.45;12.38;;;;;;;;;;5025757;28;20044;-76
2023/04/28 09:06:44;;;;;;;17.48;13.52;;;;;;;;;;5025306;28;20052;-75
2023/04/28 09:09:19;;;;;;;18.38;14.30;;;;;;;;;;5026736;28;20052;-75
2023/04/28 09:11:55;;;;;;;17.92;13.18;;;;;;;;;;5025885;28;20056;-75
2023/04/28 09:14:22;;;;;;;20.58;12.80;;;;;;;;;;5044806;28;20170;-73
2023/04/28 09:16:48;;;;;;;23.42;13.25;;;;;;;;;;5026963;28;20124;-75
2023/04/28 09:19:16;;;;;;;16.52;12.20;;;;;;;;;;5025167;28;20045;-75
2023/04/28 09:21:56;;;;;;;17.80;12.88;;;;;;;;;;5027211;28;20057;-75
2023/04/28 09:24:29;;;;;;;16.58;11.80;;;;;;;;;;5025837;28;20057;-75
2023/04/28 09:26:55;;;;;;;19.10;12.48;;;;;;;;;;5044035;28;20053;-74
2023/04/28 09:29:21;;;;;;;19.50;12.52;;;;;;;;;;5025891;28;20055;-75
2023/04/28 09:31:48;;;;;;;20.27;12.50;;;;;;;;;;5028000;28;20064;-75
2023/04/28 09:34:14;;;;;;;19.63;12.30;;;;;;;;;;5029947;28;20580;-75
2023/04/28 09:36:40;;;;;;;19.92;12.63;;;;;;;;;;5046273;28;20045;-75
2023/04/28 09:39:06;;;;;;;15.60;12.68;;;;;;;;;;5048504;28;20054;-76
2023/04/28 09:41:39;;;;;;;13.23;10.90;;;;;;;;;;5028486;28;20415;-75
2023/04/28 09:44:16;;;;;;;17.05;11.52;;;;;;;;;;5030808;28;20045;-76
2023/04/28 09:46:43;;;;;;;19.33;12.07;;;;;;;;;;5030269;28;20451;-75
2023/04/28 09:49:09;;;;;;;14.85;12.20;;;;;;;;;;5047127;28;20047;-75
2023/04/28 09:51:35;;;;;;;19.52;12.48;;;;;;;;;;5029086;28;20053;-75
2023/04/28 09:54:02;;;;;;;17.83;11.45;;;;;;;;;;5029133;28;20037;-75
2023/04/28 09:56:29;;;;;;;18.38;11.80;;;;;;;;;;5030002;28;20033;-75
2023/04/28 09:58:57;;;;;;;20.02;11.98;;;;;;;;;;5028939;28;20048;-76
2023/04/28 10:01:24;;;;;;;16.10;12.30;;;;;;;;;;5029965;28;20052;-75
2023/04/28 10:03:52;;;;;;;19.15;12.23;;;;;;;;;;5029842;28;20118;-76
2023/04/28 10:06:19;;;;;;;13.20;11.20;;;;;;;;;;5028447;28;20097;-76
2023/04/28 10:08:47;;;;;;;16.60;12.00;;;;;;;;;;5030701;28;21454;-75
2023/04/28 10:11:15;;;;;;;18.20;11.97;;;;;;;;;;5028831;28;20045;-74
2023/04/28 10:13:41;;;;;;;18.65;11.85;;;;;;;;;;5030589;28;21254;-75
2023/04/28 10:16:07;;;;;;;20.17;11.73;;;;;;;;;;5028273;28;20509;-76
2023/04/28 10:18:34;;;;;;;16.73;11.38;;;;;;;;;;5047921;28;20037;-75
2023/04/28 10:21:02;;;;;;;19.60;12.48;;;;;;;;;;5029231;28;20124;-76
2023/04/28 10:23:34;;;;;;;14.70;11.17;;;;;;;;;;5029271;28;20081;-76
2023/04/28 10:26:02;;;;;;;15.57;11.75;;;;;;;;;;5030199;28;20307;-76
2023/04/28 10:28:28;;;;;;;15.80;11.55;;;;;;;;;;5044807;28;20048;-76
2023/04/28 10:31:15;;;;;;;16.00;11.77;;;;;;;;;;5029337;28;20057;-76
2023/04/28 10:33:42;;;;;;;18.13;10.85;;;;;;;;;;5011784;28;20041;-76
2023/04/28 10:36:08;;;;;;;13.65;11.27;;;;;;;;;;5045324;28;20041;-76
2023/04/28 10:38:35;;;;;;;15.45;11.10;;;;;;;;;;5030036;28;20091;-76
2023/04/28 10:41:04;;;;;;;14.52;11.02;;;;;;;;;;5027494;28;20158;-76
2023/04/28 10:43:30;;;;;;;14.07;10.68;;;;;;;;;;5029449;28;20137;-76
2023/04/28 10:45:59;;;;;;;13.98;11.32;;;;;;;;;;5028170;28;20055;-76
2023/04/28 10:48:28;;;;;;;16.17;10.15;;;;;;;;;;5012197;28;20094;-76
2023/04/28 10:51:08;;;;;;;13.95;10.68;;;;;;;;;;5026803;28;20432;-76
2023/04/28 10:53:49;;;;;;;21.00;10.88;;;;;;;;;;5028704;28;20044;-75
2023/04/28 10:56:17;;;;;;;17.15;10.50;;;;;;;;;;5046736;28;20087;-75
2023/04/28 10:58:47;;;;;;;14.82;10.50;;;;;;;;;;5045917;28;20045;-76
2023/04/28 11:01:23;;;;;;;16.38;11.27;;;;;;;;;;5046018;28;20120;-76
2023/04/28 11:03:59;;;;;;;14.65;10.82;;;;;;;;;;5045862;28;20084;-75
2023/04/28 11:06:25;;;;;;;16.38;11.15;;;;;;;;;;5026574;28;20060;-76
2023/04/28 11:08:54;;;;;;;13.57;10.57;;;;;;;;;;5028608;28;20041;-76
2023/04/28 11:11:24;;;;;;;14.45;10.82;;;;;;;;;;5027635;28;20053;-76
2023/04/28 11:13:51;;;;;;;15.27;11.35;;;;;;;;;;5029161;28;20102;-75
2023/04/28 11:16:18;;;;;;;14.60;10.00;;;;;;;;;;5026976;28;20060;-75
2023/04/28 11:18:52;;;;;;;16.33;10.85;;;;;;;;;;5028392;28;20056;-76
2023/04/28 11:21:19;;;;;;;14.75;11.00;;;;;;;;;;5025187;28;20056;-75
2023/04/28 11:23:45;;;;;;;14.00;10.98;;;;;;;;;;5022893;28;20033;-76
2023/04/28 11:26:12;;;;;;;18.92;11.32;;;;;;;;;;5027909;28;20057;-76
2023/04/28 11:28:48;;;;;;;16.23;11.18;;;;;;;;;;5044965;28;20053;-76
2023/04/28 11:31:18;;;;;;;12.90;10.73;;;;;;;;;;5045689;28;20044;-76
2023/04/28 11:33:45;;;;;;;14.48;10.55;;;;;;;;;;5025321;28;20483;-76
2023/04/28 11:36:27;;;;;;;15.20;10.60;;;;;;;;;;5045598;28;20050;-76
2023/04/28 11:38:53;;;;;;;14.70;11.30;;;;;;;;;;5027207;28;20048;-76
2023/04/28 11:41:19;;;;;;;12.23;10.30;;;;;;;;;;5026614;28;20045;-75
2023/04/28 11:43:45;;;;;;;17.90;11.25;;;;;;;;;;5045784;28;20112;-75
2023/04/28 11:46:16;;;;;;;13.85;10.10;;;;;;;;;;5044186;28;20500;-77
2023/04/28 11:48:42;;;;;;;14.45;11.15;;;;;;;;;;5028010;28;20084;-76
2023/04/28 11:51:08;;;;;;;15.50;11.00;;;;;;;;;;5025346;28;20106;-76
2023/04/28 11:53:44;;;;;;;17.88;11.20;;;;;;;;;;5026258;28;20505;-75
2023/04/28 11:56:12;;;;;;;15.93;11.10;;;;;;;;;;5022157;28;20464;-75
2023/04/28 11:58:38;;;;;;;16.73;11.13;;;;;;;;;;5044409;28;20040;-75
2023/04/28 12:01:14;;;;;;;16.67;11.60;;;;;;;;;;5026685;28;20045;-74
2023/04/28 12:03:47;;;;;;;14.35;11.48;;;;;;;;;;5026256;28;20053;-74
2023/04/28 12:06:19;;;;;;;18.80;11.30;;;;;;;;;;5026785;28;20139;-75
2023/04/28 12:08:45;;;;;;;14.57;11.18;;;;;;;;;;5026731;28;20041;-74
2023/04/28 12:11:12;;;;;;;17.33;11.65;;;;;;;;;;5026494;28;20063;-76
2023/04/28 12:13:38;;;;;;;14.55;11.13;;;;;;;;;;5045109;28;20437;-75
2023/04/28 12:16:05;;;;;;;15.02;11.05;;;;;;;;;;5043667;28;20131;-75
2023/04/28 12:18:35;;;;;;;15.02;11.07;;;;;;;;;;5027749;28;20045;-74
2023/04/28 12:21:01;;;;;;;12.77;11.10;;;;;;;;;;5012113;28;20047;-75
2023/04/28 12:23:31;;;;;;;16.13;10.52;;;;;;;;;;5026211;28;20041;-75
2023/04/28 12:25:57;;;;;;;14.80;10.43;;;;;;;;;;5022914;28;20566;-75
2023/04/28 12:28:24;;;;;;;12.35;10.50;;;;;;;;;;5003537;28;20058;-75
2023/04/28 12:31:02;;;;;;;13.30;10.80;;;;;;;;;;5003052;28;20046;-77
2023/04/28 12:33:28;;;;;;;12.95;11.45;;;;;;;;;;5003030;28;20457;-76
2023/04/28 12:35:58;;;;;;;12.98;11.23;;;;;;;;;;5002136;28;20517;-75
2023/04/28 12:38:24;;;;;;;12.40;11.10;;;;;;;;;;5005199;28;20109;-75
2023/04/28 12:40:50;;;;;;;14.88;10.88;;;;;;;;;;5002673;28;20093;-75
2023/04/28 12:43:16;;;;;;;15.85;11.73;;;;;;;;;;5004676;28;20042;-75
2023/04/28 12:45:45;;;;;;;13.93;11.30;;;;;;;;;;5003977;28;20046;-76
2023/04/28 12:48:11;;;;;;;14.63;10.93;;;;;;;;;;5004343;28;20038;-75
2023/04/28 12:50:37;;;;;;;13.52;11.63;;;;;;;;;;4998733;28;20045;-75
2023/04/28 12:53:03;;;;;;;14.30;11.52;;;;;;;;;;5004021;28;20042;-75
2023/04/28 12:55:29;;;;;;;16.75;11.85;;;;;;;;;;5004982;28;20065;-74
2023/04/28 12:57:55;;;;;;;13.68;11.52;;;;;;;;;;5004589;28;20046;-76
2023/04/28 13:00:23;;;;;;;15.43;11.82;;;;;;;;;;5018842;28;20120;-76
2023/04/28 13:02:49;;;;;;;16.10;11.85;;;;;;;;;;5005059;28;20398;-76
2023/04/28 13:05:16;;;;;;;15.73;11.63;;;;;;;;;;5004440;28;20046;-75
2023/04/28 13:07:42;;;;;;;13.98;12.48;;;;;;;;;;5003477;28;20144;-74
2023/04/28 13:10:08;;;;;;;15.25;12.63;;;;;;;;;;5022098;28;20038;-74
2023/04/28 13:12:34;;;;;;;19.90;12.68;;;;;;;;;;5024731;28;20448;-74
2023/04/28 13:15:01;;;;;;;16.48;12.82;;;;;;;;;;5007283;28;20509;-76
2023/04/28 13:17:27;;;;;;;17.75;13.00;;;;;;;;;;5023522;28;20049;-75
2023/04/28 13:19:54;;;;;;;21.50;14.32;;;;;;;;;;5000162;28;20052;-74
2023/04/28 13:22:20;;;;;;;16.98;13.35;;;;;;;;;;5007102;28;20071;-74
2023/04/28 13:24:46;;;;;;;16.70;13.45;;;;;;;;;;5022592;28;20046;-75
2023/04/28 13:27:12;;;;;;;19.08;14.32;;;;;;;;;;5026663;28;20075;-74
2023/04/28 13:29:39;;;;;;;18.48;15.07;;;;;;;;;;5029211;28;20048;-74
2023/04/28 13:32:06;;;;;;;19.67;15.65;;;;;;;;;;5045109;28;20076;-74
2023/04/28 13:34:32;;;;;;;17.35;14.68;;;;;;;;;;5030088;28;20053;-74
2023/04/28 13:36:58;;;;;;;18.05;15.57;;;;;;;;;;5025404;28;20056;-74
2023/04/28 13:39:24;;;;;;;19.80;16.65;;;;;;;;;;5037751;28;20060;-78
2023/04/28 13:41:50;;;;;;;19.52;17.33;;;;;;;;;;5030165;28;20044;-73
2023/04/28 13:44:16;;;;;;;21.35;17.50;;;;;;;;;;5035859;28;20041;-75
2023/04/28 13:46:42;;;;;;;24.83;18.58;;;;;;;;;;5028231;28;20049;-74
2023/04/28 13:49:12;;;;;;;25.40;19.50;;;;;;;;;;5024182;28;20033;-74
2023/04/28 13:51:37;;;;;;;26.75;19.88;;;;;;;;;;5042887;28;20053;-75
2023/04/28 13:54:07;;;;;;;27.77;20.88;;;;;;;;;;5025452;28;20052;-74
2023/04/28 13:56:33;;;;;;;28.60;22.20;;;;;;;;;;5043974;28;20076;-74
2023/04/28 13:58:59;;;;;;;28.95;23.33;;;;;;;;;;5024757;28;20106;-75
2023/04/28 14:01:25;;;;;;;29.20;23.05;;;;;;;;;;5024615;28;20048;-75
2023/04/28 14:03:51;;;;;;;34.60;26.08;;;;;;;;;;5027175;28;20045;-75
2023/04/28 14:06:17;;;;;;;31.77;24.50;;;;;;;;;;5022860;28;20056;-75
2023/04/28 14:08:43;;;;;;;31.58;26.00;;;;;;;;;;5025908;28;20098;-75
2023/04/28 14:11:10;;;;;;;33.10;27.02;;;;;;;;;;5025539;28;20033;-74
2023/04/28 14:13:36;;;;;;;34.08;26.13;;;;;;;;;;5042720;28;20558;-76
2023/04/28 14:16:03;;;;;;;28.83;25.42;;;;;;;;;;5024841;28;20045;-75